Time;durP1;ratioP1;P1;durP2;ratioP2;P2;SDS_P1;SDS_P2;PMS_P1;PMS_P2;Temp;Humidity;BMP_temperature;BMP_pressure;BME280_temperature;BME280_humidity;BME280_pressure;Samples;Min_cycle;Max_cycle;Signal;HPM_P1;HPM_P2
2022/02/24 00:00:10;;;;;;;6.05;2.10;;;9.50;69.20;;;;;;5052504;28;20025;-46
2022/02/24 00:02:36;;;;;;;7.68;2.83;;;9.50;69.30;;;;;;5052418;28;20020;-45
2022/02/24 00:05:01;;;;;;;6.35;2.40;;;9.50;69.30;;;;;;5051224;28;20035;-45
2022/02/24 00:07:27;;;;;;;11.23;2.95;;;9.50;69.30;;;;;;5052392;28;20025;-46
2022/02/24 00:09:52;;;;;;;11.45;3.25;;;9.50;69.40;;;;;;5052504;28;20033;-45
2022/02/24 00:12:19;;;;;;;6.35;2.70;;;9.50;69.50;;;;;;5052385;28;20029;-46
2022/02/24 00:14:45;;;;;;;5.75;2.25;;;9.50;69.60;;;;;;5052621;28;20478;-46
2022/02/24 00:17:11;;;;;;;7.93;2.70;;;9.50;69.70;;;;;;5052275;28;20021;-44
2022/02/24 00:19:37;;;;;;;8.50;2.50;;;9.50;69.70;;;;;;5052194;28;20151;-46
2022/02/24 00:22:03;;;;;;;7.65;2.75;;;9.50;69.70;;;;;;5052269;28;20028;-46
2022/02/24 00:24:29;;;;;;;9.85;2.72;;;9.40;69.60;;;;;;5052319;28;20056;-47
2022/02/24 00:26:54;;;;;;;8.98;2.85;;;9.40;69.50;;;;;;5052585;28;20110;-46
2022/02/24 00:29:20;;;;;;;9.13;2.90;;;9.40;69.20;;;;;;5052118;28;20025;-48
2022/02/24 00:31:46;;;;;;;9.38;2.60;;;9.40;69.10;;;;;;5052040;28;20033;-46
2022/02/24 00:34:12;;;;;;;6.75;2.35;;;9.40;68.90;;;;;;5052019;28;20535;-43
2022/02/24 00:36:38;;;;;;;6.53;2.38;;;9.40;69.00;;;;;;5054651;28;20017;-47
2022/02/24 00:39:03;;;;;;;6.50;2.42;;;9.40;69.00;;;;;;5056052;28;20032;-48
2022/02/24 00:41:29;;;;;;;12.55;2.95;;;9.40;69.00;;;;;;5056112;28;20021;-46
2022/02/24 00:43:55;;;;;;;11.75;2.95;;;9.40;69.00;;;;;;5056228;28;20047;-46
2022/02/24 00:46:20;;;;;;;9.85;3.10;;;9.40;68.90;;;;;;5055843;28;20544;-46
2022/02/24 00:48:46;;;;;;;8.73;2.85;;;9.30;68.70;;;;;;5056127;28;20020;-47
2022/02/24 00:51:11;;;;;;;7.65;2.60;;;9.30;69.00;;;;;;5055970;28;20029;-45
2022/02/24 00:53:41;;;;;;;11.90;2.85;;;9.30;68.90;;;;;;5056037;28;20025;-46
2022/02/24 00:56:10;;;;;;;7.05;2.60;;;9.30;69.10;;;;;;5056241;28;20029;-47
2022/02/24 00:58:35;;;;;;;8.23;2.42;;;9.30;69.20;;;;;;5055837;28;20473;-47
2022/02/24 01:01:01;;;;;;;5.10;2.33;;;9.30;69.20;;;;;;5055835;28;20166;-50
2022/02/24 01:03:27;;;;;;;5.82;2.47;;;9.30;69.40;;;;;;5054753;28;20116;-45
2022/02/24 01:05:52;;;;;;;7.28;2.47;;;9.30;69.50;;;;;;5055736;28;20029;-50
2022/02/24 01:08:18;;;;;;;6.60;2.65;;;9.30;69.60;;;;;;5055452;28;20025;-46
2022/02/24 01:10:44;;;;;;;8.15;2.60;;;9.30;69.70;;;;;;5055353;28;20032;-45
2022/02/24 01:13:09;;;;;;;8.25;2.70;;;9.30;69.80;;;;;;5055548;28;20021;-46
2022/02/24 01:15:38;;;;;;;6.40;2.53;;;9.30;69.90;;;;;;5055336;28;20021;-48
2022/02/24 01:18:04;;;;;;;7.05;2.33;;;9.30;69.90;;;;;;5055265;28;20021;-48
2022/02/24 01:20:30;;;;;;;7.70;2.60;;;9.30;70.00;;;;;;5055376;28;20023;-48
2022/02/24 01:22:56;;;;;;;5.40;2.42;;;9.30;70.00;;;;;;5053947;28;20468;-48
2022/02/24 01:25:21;;;;;;;5.90;2.50;;;9.30;70.20;;;;;;5055267;28;20476;-47
2022/02/24 01:27:47;;;;;;;8.07;2.50;;;9.30;70.20;;;;;;5055277;28;20041;-47
2022/02/24 01:30:13;;;;;;;6.45;2.30;;;9.30;70.90;;;;;;5055161;28;20063;-45
2022/02/24 01:32:39;;;;;;;8.23;3.08;;;9.40;70.30;;;;;;5055085;28;20028;-47
2022/02/24 01:35:06;;;;;;;5.25;2.70;;;9.40;70.40;;;;;;5053598;28;20388;-48
2022/02/24 01:37:31;;;;;;;8.43;2.63;;;9.30;70.40;;;;;;5055092;28;20032;-48
2022/02/24 01:39:57;;;;;;;7.55;2.80;;;9.30;70.60;;;;;;5053587;28;20017;-50
2022/02/24 01:42:23;;;;;;;6.07;2.30;;;9.30;70.60;;;;;;5055226;28;20479;-46
2022/02/24 01:44:49;;;;;;;11.75;2.90;;;9.30;70.80;;;;;;5053580;28;20048;-45
2022/02/24 01:47:15;;;;;;;7.72;3.10;;;9.30;70.80;;;;;;5052587;28;20107;-47
2022/02/24 01:49:42;;;;;;;6.35;2.70;;;9.30;71.00;;;;;;5055240;28;20071;-50
2022/02/24 01:52:11;;;;;;;7.65;2.60;;;9.30;71.00;;;;;;5054595;28;20059;-46
2022/02/24 01:54:38;;;;;;;10.20;3.08;;;9.30;71.10;;;;;;5054571;28;20025;-45
2022/02/24 01:57:05;;;;;;;9.18;2.92;;;9.30;71.20;;;;;;5054870;28;20027;-46
2022/02/24 01:59:31;;;;;;;9.65;3.00;;;9.20;71.10;;;;;;5054493;28;20557;-49
2022/02/24 02:01:56;;;;;;;7.97;2.95;;;9.20;71.10;;;;;;5053238;28;20049;-47
2022/02/24 02:04:24;;;;;;;7.88;3.40;;;9.20;71.10;;;;;;5054657;28;20018;-51
2022/02/24 02:06:50;;;;;;;8.02;3.13;;;9.20;71.00;;;;;;5054416;28;20144;-47
2022/02/24 02:09:17;;;;;;;9.20;3.05;;;9.30;71.00;;;;;;5054535;28;20060;-46
2022/02/24 02:11:43;;;;;;;6.20;2.95;;;9.20;71.00;;;;;;5054348;28;20021;-47
2022/02/24 02:14:10;;;;;;;6.75;2.80;;;9.20;71.00;;;;;;5054176;28;20108;-47
2022/02/24 02:16:36;;;;;;;7.05;3.15;;;9.20;70.90;;;;;;5054165;28;20028;-48
2022/02/24 02:19:01;;;;;;;7.63;3.28;;;9.20;70.90;;;;;;5054154;28;20414;-47
2022/02/24 02:21:31;;;;;;;11.18;3.47;;;9.20;70.90;;;;;;5054226;28;20051;-45
2022/02/24 02:23:56;;;;;;;9.27;3.25;;;9.20;70.90;;;;;;5054068;28;20175;-46
2022/02/24 02:26:22;;;;;;;9.20;2.70;;;9.20;71.00;;;;;;5054020;28;20052;-47
2022/02/24 02:28:48;;;;;;;7.25;2.60;;;9.20;70.90;;;;;;5054342;28;20032;-44
2022/02/24 02:31:18;;;;;;;6.72;2.95;;;9.20;71.00;;;;;;5054275;28;20048;-49
2022/02/24 02:33:43;;;;;;;8.68;2.83;;;9.20;71.10;;;;;;5054165;28;20131;-47
2022/02/24 02:36:09;;;;;;;7.15;2.67;;;9.20;71.00;;;;;;5053942;28;20025;-45
2022/02/24 02:38:34;;;;;;;6.43;2.70;;;9.20;71.00;;;;;;5054096;28;20051;-46
2022/02/24 02:41:00;;;;;;;9.20;2.80;;;9.20;71.00;;;;;;5054276;28;20012;-46
2022/02/24 02:43:25;;;;;;;8.55;2.80;;;9.20;71.00;;;;;;5053943;28;20028;-46
2022/02/24 02:45:51;;;;;;;8.82;2.78;;;9.20;71.00;;;;;;5053741;28;20053;-49
2022/02/24 02:48:16;;;;;;;10.40;2.63;;;9.20;71.00;;;;;;5053731;28;20384;-48
2022/02/24 02:50:42;;;;;;;7.70;2.47;;;9.20;70.90;;;;;;5053891;28;20037;-46
2022/02/24 02:53:07;;;;;;;6.72;2.47;;;9.20;71.00;;;;;;5053715;28;20056;-48
2022/02/24 02:55:33;;;;;;;7.15;2.38;;;9.20;70.90;;;;;;5053522;28;20112;-46
2022/02/24 02:57:59;;;;;;;8.70;3.05;;;9.20;70.90;;;;;;5053918;28;20037;-48
2022/02/24 03:00:24;;;;;;;9.07;2.60;;;9.20;70.70;;;;;;5053419;28;20029;-46
2022/02/24 03:02:50;;;;;;;8.52;2.67;;;9.20;70.70;;;;;;5053890;28;20391;-48
2022/02/24 03:05:16;;;;;;;9.60;2.35;;;9.20;70.70;;;;;;5053489;28;20024;-44
2022/02/24 03:07:41;;;;;;;8.52;3.08;;;9.20;70.70;;;;;;5053683;28;20024;-47
2022/02/24 03:10:08;;;;;;;7.95;2.85;;;9.20;70.60;;;;;;5053452;28;20028;-47
2022/02/24 03:12:35;;;;;;;8.35;2.25;;;9.20;70.50;;;;;;5053398;28;20116;-46
2022/02/24 03:15:10;;;;;;;6.80;2.53;;;9.20;70.50;;;;;;5053291;28;20032;-46
2022/02/24 03:17:38;;;;;;;9.63;2.30;;;9.20;70.30;;;;;;5053311;28;20167;-45
2022/02/24 03:20:05;;;;;;;8.38;2.65;;;9.20;70.40;;;;;;5053197;28;20107;-46
2022/02/24 03:22:30;;;;;;;10.20;2.38;;;9.20;70.30;;;;;;5053448;28;20024;-47
2022/02/24 03:24:56;;;;;;;5.75;2.35;;;9.10;70.20;;;;;;5053243;28;20032;-46
2022/02/24 03:27:22;;;;;;;7.13;2.13;;;9.20;70.30;;;;;;5053102;28;20040;-47
2022/02/24 03:29:47;;;;;;;5.15;1.92;;;9.20;70.20;;;;;;5053074;28;20477;-47
2022/02/24 03:32:13;;;;;;;7.05;2.33;;;9.10;70.10;;;;;;5052972;28;20037;-46
2022/02/24 03:34:40;;;;;;;5.97;2.30;;;9.10;69.90;;;;;;5053056;28;20116;-45
2022/02/24 03:37:06;;;;;;;4.30;2.00;;;9.20;70.00;;;;;;5052948;28;20078;-46
2022/02/24 03:39:32;;;;;;;8.98;2.65;;;9.20;70.00;;;;;;5052949;28;20033;-48
2022/02/24 03:41:58;;;;;;;7.10;2.17;;;9.20;69.80;;;;;;5053125;28;20046;-47
2022/02/24 03:44:23;;;;;;;6.90;2.17;;;9.20;69.80;;;;;;5052690;28;20547;-48
2022/02/24 03:46:49;;;;;;;5.65;1.90;;;9.20;69.90;;;;;;5052833;28;20028;-45
2022/02/24 03:49:15;;;;;;;8.40;2.15;;;9.20;69.80;;;;;;5052756;28;20067;-45
2022/02/24 03:51:41;;;;;;;5.72;1.88;;;9.10;69.80;;;;;;5052778;28;20040;-46
2022/02/24 03:54:06;;;;;;;10.13;2.05;;;9.20;69.80;;;;;;5053021;28;20032;-46
2022/02/24 03:56:32;;;;;;;7.90;2.25;;;9.10;69.80;;;;;;5052658;28;20485;-46
2022/02/24 03:58:58;;;;;;;8.68;2.20;;;9.10;69.70;;;;;;5052757;28;20131;-45
2022/02/24 04:01:23;;;;;;;12.98;3.17;;;9.10;69.70;;;;;;5052715;28;20029;-47
2022/02/24 04:03:49;;;;;;;6.00;2.00;;;9.10;69.60;;;;;;5052661;28;20029;-45
2022/02/24 04:06:14;;;;;;;6.60;2.35;;;9.10;69.60;;;;;;5052539;28;20504;-46
2022/02/24 04:08:40;;;;;;;5.45;2.40;;;9.10;69.60;;;;;;5051251;28;20032;-45
2022/02/24 04:11:05;;;;;;;7.38;2.25;;;9.10;69.70;;;;;;5051985;28;20029;-47
2022/02/24 04:13:31;;;;;;;6.45;2.10;;;9.10;69.60;;;;;;5052475;28;20036;-45
2022/02/24 04:15:56;;;;;;;7.38;2.20;;;9.20;69.70;;;;;;5052504;28;20029;-47
2022/02/24 04:18:22;;;;;;;10.25;2.42;;;9.20;69.70;;;;;;5052404;28;20481;-47
2022/02/24 04:20:48;;;;;;;10.00;2.53;;;9.10;69.50;;;;;;5052504;28;20033;-48
2022/02/24 04:23:13;;;;;;;8.07;2.30;;;9.10;69.60;;;;;;5052395;28;20062;-49
2022/02/24 04:25:39;;;;;;;5.47;2.35;;;9.10;69.50;;;;;;5051148;28;20131;-48
2022/02/24 04:28:05;;;;;;;7.32;2.70;;;9.10;69.60;;;;;;5052520;28;20036;-46
2022/02/24 04:30:30;;;;;;;5.82;2.35;;;9.10;69.50;;;;;;5052414;28;20029;-46
2022/02/24 04:32:56;;;;;;;6.82;2.30;;;9.10;69.50;;;;;;5052528;28;20032;-47
2022/02/24 04:35:21;;;;;;;8.88;2.30;;;9.10;69.60;;;;;;5052347;28;20029;-48
2022/02/24 04:37:47;;;;;;;5.10;1.90;;;9.10;69.60;;;;;;5052446;28;20025;-47
2022/02/24 04:40:14;;;;;;;8.32;2.70;;;9.10;69.70;;;;;;5052515;28;20060;-45
2022/02/24 04:42:40;;;;;;;7.65;2.20;;;9.10;69.60;;;;;;5051072;28;20112;-46
2022/02/24 04:45:06;;;;;;;5.65;2.25;;;9.10;69.60;;;;;;5052045;28;20140;-45
2022/02/24 04:47:32;;;;;;;4.70;2.00;;;9.10;69.70;;;;;;5051246;28;20120;-48
2022/02/24 04:49:57;;;;;;;6.15;2.30;;;9.10;69.70;;;;;;5052313;28;20075;-45
2022/02/24 04:52:23;;;;;;;14.15;2.78;;;9.10;69.80;;;;;;5052117;28;20112;-46
2022/02/24 04:54:49;;;;;;;10.15;2.78;;;9.10;69.90;;;;;;5052133;28;20117;-47
2022/02/24 04:57:14;;;;;;;11.05;3.50;;;9.10;70.00;;;;;;5052120;28;20051;-46
2022/02/24 04:59:40;;;;;;;6.60;2.40;;;9.20;70.10;;;;;;5052210;28;20070;-47
2022/02/24 05:02:05;;;;;;;8.05;2.72;;;9.20;70.20;;;;;;5050790;28;20023;-47
2022/02/24 05:04:31;;;;;;;6.47;2.63;;;9.10;70.20;;;;;;5051985;28;20163;-47
2022/02/24 05:06:58;;;;;;;8.65;2.55;;;9.10;70.40;;;;;;5051973;28;20036;-45
2022/02/24 05:09:24;;;;;;;6.45;2.60;;;9.10;70.40;;;;;;5052224;28;20055;-45
2022/02/24 05:11:51;;;;;;;6.68;2.30;;;9.20;70.60;;;;;;5052268;28;20025;-46
2022/02/24 05:14:16;;;;;;;9.30;2.63;;;9.10;70.60;;;;;;5051796;28;20051;-49
2022/02/24 05:16:42;;;;;;;8.38;2.47;;;9.10;70.70;;;;;;5052048;28;20025;-45
2022/02/24 05:19:08;;;;;;;8.35;2.90;;;9.10;70.80;;;;;;5051953;28;20036;-50
2022/02/24 05:21:33;;;;;;;6.65;2.92;;;9.10;70.80;;;;;;5051910;28;20469;-46
2022/02/24 05:23:59;;;;;;;7.68;2.22;;;9.10;70.90;;;;;;5054750;28;20100;-46
2022/02/24 05:26:24;;;;;;;9.45;3.03;;;9.10;71.00;;;;;;5055509;28;20029;-48
2022/02/24 05:28:50;;;;;;;7.50;2.40;;;9.10;71.00;;;;;;5055751;28;20071;-50
2022/02/24 05:31:15;;;;;;;8.77;2.80;;;9.10;71.00;;;;;;5055354;28;20035;-46
2022/02/24 05:33:41;;;;;;;9.52;2.63;;;9.10;71.20;;;;;;5055396;28;20059;-46
2022/02/24 05:36:07;;;;;;;10.90;2.90;;;9.10;71.20;;;;;;5054031;28;20036;-45
2022/02/24 05:38:33;;;;;;;6.38;2.13;;;9.10;71.30;;;;;;5055211;28;20036;-47
2022/02/24 05:40:58;;;;;;;9.60;2.97;;;9.10;71.30;;;;;;5055158;28;20024;-48
2022/02/24 05:43:25;;;;;;;7.07;2.55;;;9.10;71.40;;;;;;5055273;28;20103;-47
2022/02/24 05:45:51;;;;;;;7.07;2.45;;;9.10;71.40;;;;;;5055076;28;20045;-45
2022/02/24 05:48:16;;;;;;;8.20;2.50;;;9.10;71.40;;;;;;5054917;28;20067;-47
2022/02/24 05:50:42;;;;;;;10.93;2.67;;;9.00;71.40;;;;;;5055035;28;20386;-46
2022/02/24 05:53:07;;;;;;;7.65;2.53;;;9.10;71.60;;;;;;5055296;28;20469;-48
2022/02/24 05:55:36;;;;;;;7.13;2.83;;;9.00;71.60;;;;;;5054735;28;20033;-47
2022/02/24 05:58:02;;;;;;;8.85;2.47;;;9.10;71.60;;;;;;5053580;28;20055;-46
2022/02/24 06:00:28;;;;;;;8.52;2.63;;;9.10;71.70;;;;;;5054854;28;20033;-46
2022/02/24 06:02:53;;;;;;;7.60;2.85;;;9.00;71.70;;;;;;5055148;28;20048;-49
2022/02/24 06:05:19;;;;;;;9.73;2.92;;;9.00;71.70;;;;;;5053457;28;20578;-46
2022/02/24 06:07:45;;;;;;;7.60;2.60;;;9.00;71.80;;;;;;5054902;28;20458;-49
2022/02/24 06:10:12;;;;;;;12.35;2.60;;;9.00;71.90;;;;;;5054822;28;20036;-45
2022/02/24 06:12:38;;;;;;;6.43;2.30;;;9.00;72.00;;;;;;5054696;28;20040;-47
2022/02/24 06:15:06;;;;;;;8.15;2.78;;;9.00;72.00;;;;;;5054550;28;20489;-45
2022/02/24 06:17:32;;;;;;;9.02;2.50;;;9.00;72.00;;;;;;5054566;28;20029;-46
2022/02/24 06:19:57;;;;;;;9.70;2.78;;;9.00;72.00;;;;;;5054446;28;20036;-47
2022/02/24 06:22:23;;;;;;;8.27;2.22;;;9.00;72.00;;;;;;5053143;28;20507;-47
2022/02/24 06:24:51;;;;;;;8.27;3.17;;;9.10;72.20;;;;;;5054507;28;20025;-46
2022/02/24 06:27:18;;;;;;;6.63;2.50;;;9.00;72.10;;;;;;5054466;28;20369;-47
2022/02/24 06:29:44;;;;;;;8.98;2.50;;;9.00;72.10;;;;;;5054299;28;20488;-47
2022/02/24 06:32:10;;;;;;;5.88;2.45;;;9.10;72.20;;;;;;5054125;28;20093;-47
2022/02/24 06:34:35;;;;;;;6.72;2.28;;;9.10;72.20;;;;;;5052334;28;20033;-45
2022/02/24 06:37:01;;;;;;;7.03;2.53;;;9.10;72.30;;;;;;5054163;28;20079;-48
2022/02/24 06:39:26;;;;;;;5.72;2.58;;;9.10;72.30;;;;;;5054056;28;20036;-45
2022/02/24 06:41:52;;;;;;;9.02;3.05;;;9.10;72.30;;;;;;5054048;28;20385;-45
2022/02/24 06:44:18;;;;;;;9.30;2.80;;;9.10;72.30;;;;;;5053734;28;20036;-45
2022/02/24 06:46:44;;;;;;;7.93;2.47;;;9.10;72.30;;;;;;5053921;28;20033;-43
2022/02/24 06:49:10;;;;;;;8.20;2.63;;;9.10;72.20;;;;;;5053942;28;20025;-48
2022/02/24 06:51:36;;;;;;;11.35;2.53;;;9.10;72.20;;;;;;5053789;28;20124;-45
2022/02/24 06:54:02;;;;;;;7.55;2.53;;;9.10;72.30;;;;;;5053847;28;20064;-45
2022/02/24 06:56:28;;;;;;;7.78;2.63;;;9.10;72.40;;;;;;5053560;28;20036;-46
2022/02/24 06:58:53;;;;;;;8.65;2.65;;;9.10;72.40;;;;;;5053671;28;20075;-48
2022/02/24 07:01:19;;;;;;;8.15;2.42;;;9.10;72.30;;;;;;5053760;28;20086;-51
2022/02/24 07:03:44;;;;;;;5.85;2.28;;;9.10;72.40;;;;;;5053608;28;20025;-46
2022/02/24 07:06:11;;;;;;;9.90;2.33;;;9.10;72.30;;;;;;5053782;28;20025;-46
2022/02/24 07:08:37;;;;;;;6.72;2.05;;;9.10;72.30;;;;;;5053495;28;20032;-46
2022/02/24 07:11:02;;;;;;;7.50;2.00;;;9.10;72.30;;;;;;5053553;28;20033;-48
2022/02/24 07:13:28;;;;;;;6.18;2.53;;;9.10;72.40;;;;;;5053481;28;20419;-47
2022/02/24 07:15:54;;;;;;;8.00;2.17;;;9.10;72.30;;;;;;5053386;28;20044;-47
2022/02/24 07:18:20;;;;;;;8.00;2.35;;;9.10;72.40;;;;;;5053336;28;20029;-46
2022/02/24 07:20:46;;;;;;;9.05;2.53;;;9.10;72.50;;;;;;5053353;28;20029;-50
2022/02/24 07:23:12;;;;;;;7.00;2.05;;;9.10;72.50;;;;;;5053401;28;20033;-50
2022/02/24 07:25:39;;;;;;;9.05;2.35;;;9.10;72.60;;;;;;5053582;28;20056;-50
2022/02/24 07:28:05;;;;;;;7.40;2.10;;;9.20;72.70;;;;;;5053180;28;20044;-47
2022/02/24 07:30:30;;;;;;;6.40;2.10;;;9.20;73.40;;;;;;5053112;28;20033;-49
2022/02/24 07:32:56;;;;;;;6.35;1.90;;;9.20;72.70;;;;;;5053028;28;20055;-47
2022/02/24 07:35:22;;;;;;;7.78;2.15;;;9.20;72.80;;;;;;5053264;28;20083;-48
2022/02/24 07:37:47;;;;;;;9.75;2.25;;;9.20;72.90;;;;;;5053121;28;20025;-49
2022/02/24 07:40:13;;;;;;;5.93;2.20;;;9.20;72.90;;;;;;5053080;28;20032;-49
2022/02/24 07:42:38;;;;;;;7.32;2.05;;;9.20;72.90;;;;;;5052966;28;20040;-49
2022/02/24 07:45:06;;;;;;;11.88;2.38;;;9.20;73.00;;;;;;5052359;28;20052;-49
2022/02/24 07:47:31;;;;;;;4.63;2.03;;;9.20;73.10;;;;;;5052965;28;20445;-46
2022/02/24 07:49:58;;;;;;;8.35;2.05;;;9.20;73.20;;;;;;5052829;28;20036;-48
2022/02/24 07:52:24;;;;;;;6.68;2.30;;;9.20;73.30;;;;;;5053027;28;20028;-48
2022/02/24 07:54:50;;;;;;;5.32;1.92;;;9.20;73.40;;;;;;5052738;28;20025;-48
2022/02/24 07:57:16;;;;;;;9.25;3.08;;;9.20;73.40;;;;;;5052680;28;20087;-49
2022/02/24 07:59:41;;;;;;;6.60;2.13;;;9.20;73.40;;;;;;5052736;28;20021;-48
2022/02/24 08:02:07;;;;;;;6.30;2.45;;;9.30;73.40;;;;;;5053035;28;20035;-47
2022/02/24 08:04:33;;;;;;;6.45;2.00;;;9.20;73.50;;;;;;5052608;28;20025;-47
2022/02/24 08:06:58;;;;;;;3.38;1.65;;;9.30;73.60;;;;;;5052935;28;20021;-46
2022/02/24 08:09:24;;;;;;;5.68;1.80;;;9.30;73.80;;;;;;5051074;28;20530;-47
2022/02/24 08:14:35;;;;;;;10.88;3.20;;;9.30;74.00;;;;;;5052518;28;20404;-50
2022/02/24 08:17:01;;;;;;;5.82;2.58;;;9.40;74.10;;;;;;5052612;28;20044;-51
2022/02/24 08:19:27;;;;;;;10.32;2.88;;;9.40;74.30;;;;;;5052575;28;20100;-47
2022/02/24 08:21:52;;;;;;;6.95;2.40;;;9.40;74.20;;;;;;5052636;28;20051;-47
2022/02/24 08:24:18;;;;;;;5.07;2.33;;;9.40;74.20;;;;;;5051183;28;20014;-48
2022/02/24 08:26:44;;;;;;;8.90;2.10;;;9.50;74.20;;;;;;5051259;28;20025;-46
2022/02/24 08:29:10;;;;;;;5.80;1.65;;;9.50;74.10;;;;;;5052758;28;20485;-48
2022/02/24 08:31:35;;;;;;;4.32;1.95;;;9.50;74.20;;;;;;5052626;28;20473;-49
2022/02/24 08:34:01;;;;;;;5.68;1.77;;;9.50;74.10;;;;;;5052535;28;20112;-47
2022/02/24 08:36:27;;;;;;;7.57;2.10;;;9.50;74.00;;;;;;5052289;28;20536;-47
2022/02/24 08:38:52;;;;;;;6.35;2.05;;;9.50;73.90;;;;;;5052362;28;20519;-45
2022/02/24 08:41:18;;;;;;;9.68;2.30;;;9.50;73.90;;;;;;5052366;28;20025;-45
2022/02/24 08:43:43;;;;;;;7.53;2.33;;;9.50;73.90;;;;;;5052442;28;20167;-46
2022/02/24 08:46:09;;;;;;;11.38;2.45;;;9.50;73.90;;;;;;5052193;28;20060;-45
2022/02/24 08:48:35;;;;;;;4.80;1.88;;;9.50;74.20;;;;;;5052344;28;20032;-49
2022/02/24 08:51:00;;;;;;;9.32;2.50;;;9.50;74.10;;;;;;5052784;28;20020;-45
2022/02/24 08:53:26;;;;;;;8.88;2.58;;;9.60;74.00;;;;;;5052204;28;20548;-44
2022/02/24 08:55:51;;;;;;;6.25;2.08;;;9.60;73.40;;;;;;5052605;28;20098;-46
2022/02/24 08:58:17;;;;;;;12.32;2.30;;;9.60;73.30;;;;;;5055385;28;20469;-45
2022/02/24 09:00:47;;;;;;;5.28;2.20;;;9.70;73.30;;;;;;5056009;28;20105;-45
2022/02/24 09:03:15;;;;;;;5.32;2.00;;;9.70;72.90;;;;;;5055956;28;20025;-46
2022/02/24 09:05:41;;;;;;;5.82;2.15;;;9.70;72.80;;;;;;5056222;28;20107;-47
2022/02/24 09:08:06;;;;;;;6.22;1.90;;;9.70;73.70;;;;;;5055766;28;20031;-48
2022/02/24 09:10:32;;;;;;;5.03;1.92;;;9.80;73.20;;;;;;5055883;28;20115;-47
2022/02/24 09:12:59;;;;;;;8.20;2.22;;;9.80;72.70;;;;;;5055815;28;20179;-44
2022/02/24 09:15:24;;;;;;;4.35;1.83;;;9.80;72.90;;;;;;5055914;28;20056;-49
2022/02/24 09:17:50;;;;;;;6.28;1.90;;;9.80;73.20;;;;;;5055851;28;20025;-48
2022/02/24 09:20:16;;;;;;;7.95;2.38;;;9.80;72.80;;;;;;5055773;28;20025;-47
2022/02/24 09:22:42;;;;;;;5.95;2.05;;;9.80;72.50;;;;;;5055626;28;20445;-47
2022/02/24 09:25:09;;;;;;;4.72;1.55;;;9.80;72.80;;;;;;5055691;28;20024;-48
2022/02/24 09:27:36;;;;;;;7.13;2.30;;;9.90;73.50;;;;;;5055412;28;20021;-50
2022/02/24 09:30:05;;;;;;;7.30;2.08;;;9.90;73.50;;;;;;5055800;28;20393;-47
2022/02/24 09:32:32;;;;;;;7.90;2.25;;;10.00;72.50;;;;;;5055274;28;20083;-48
2022/02/24 09:34:59;;;;;;;9.32;2.08;;;10.00;71.60;;;;;;5055357;28;20025;-50
2022/02/24 09:37:25;;;;;;;4.53;1.98;;;10.00;71.60;;;;;;5053948;28;20503;-49
2022/02/24 09:39:50;;;;;;;5.35;1.83;;;10.00;71.00;;;;;;5055610;28;20469;-49
2022/02/24 09:42:16;;;;;;;7.78;1.90;;;10.00;71.00;;;;;;5055354;28;20028;-48
2022/02/24 09:44:42;;;;;;;7.60;1.92;;;10.00;70.70;;;;;;5055027;28;20041;-45
2022/02/24 09:47:09;;;;;;;6.65;1.77;;;10.00;70.60;;;;;;5055098;28;20113;-47
2022/02/24 09:49:36;;;;;;;9.18;2.22;;;10.00;70.50;;;;;;5055064;28;20107;-47
2022/02/24 09:52:01;;;;;;;5.50;1.65;;;10.00;70.30;;;;;;5055122;28;20043;-47
2022/02/24 09:54:27;;;;;;;5.40;2.10;;;10.00;70.30;;;;;;5053526;28;20021;-45
2022/02/24 09:56:54;;;;;;;7.28;1.75;;;10.00;70.00;;;;;;5055039;28;20025;-46
2022/02/24 09:59:20;;;;;;;6.53;2.35;;;10.00;70.20;;;;;;5054861;28;20045;-48
2022/02/24 10:01:46;;;;;;;8.23;2.20;;;10.00;70.40;;;;;;5055141;28;20056;-46
2022/02/24 10:04:12;;;;;;;8.68;2.10;;;10.10;70.80;;;;;;5054816;28;20028;-46
2022/02/24 10:06:42;;;;;;;8.45;2.00;;;10.20;70.60;;;;;;5054821;28;20024;-47
2022/02/24 10:09:09;;;;;;;6.70;2.03;;;10.30;69.70;;;;;;5054046;28;20033;-47
2022/02/24 10:11:42;;;;;;;3.85;1.70;;;10.30;69.50;;;;;;5054704;28;20389;-46
2022/02/24 10:14:15;;;;;;;7.05;1.80;;;10.40;69.70;;;;;;5053424;28;20431;-47
2022/02/24 10:17:04;;;;;;;4.45;1.50;;;10.50;69.60;;;;;;5054685;28;20024;-46
2022/02/24 10:19:45;;;;;;;4.63;1.77;;;10.50;69.40;;;;;;5054834;28;20477;-47
2022/02/24 10:22:26;;;;;;;6.75;1.50;;;10.60;69.60;;;;;;5054859;28;20505;-46
2022/02/24 10:25:06;;;;;;;6.32;1.52;;;10.60;69.20;;;;;;5054788;28;20020;-46
2022/02/24 10:27:34;;;;;;;7.28;1.60;;;10.70;69.30;;;;;;5053098;28;20017;-48
2022/02/24 10:30:07;;;;;;;7.55;1.90;;;10.80;68.90;;;;;;5054517;28;20051;-44
2022/02/24 10:32:41;;;;;;;8.68;1.80;;;10.80;68.20;;;;;;5054326;28;20201;-49
2022/02/24 10:35:25;;;;;;;5.45;1.73;;;10.80;69.30;;;;;;5054279;28;20388;-46
2022/02/24 10:37:58;;;;;;;;;;;10.80;68.80;;;;;;5054696;28;20025;-44
2022/02/24 10:40:25;;;;;;;6.07;1.67;;;10.80;69.60;;;;;;5054216;28;19916;-46
2022/02/24 10:42:51;;;;;;;7.72;2.50;;;10.80;71.70;;;;;;5053217;28;20638;-45
2022/02/24 10:45:21;;;;;;;9.45;1.90;;;10.80;70.50;;;;;;5054060;28;20101;-46
2022/02/24 10:48:02;;;;;;;5.75;1.88;;;10.70;69.20;;;;;;5054361;28;20025;-46
2022/02/24 10:50:55;;;;;;;9.13;1.90;;;10.70;69.30;;;;;;5052562;28;20025;-47
2022/02/24 10:53:29;;;;;;;7.77;2.10;;;10.80;69.00;;;;;;5052817;28;20033;-45
2022/02/24 10:56:02;;;;;;;5.07;1.85;;;10.80;69.70;;;;;;5054114;28;20027;-46
2022/02/24 10:58:32;;;;;;;9.18;2.03;;;10.80;68.90;;;;;;5053912;28;20013;-50
2022/02/24 11:01:21;;;;;;;6.82;1.80;;;10.80;68.10;;;;;;5053830;28;20025;-45
2022/02/24 11:03:49;;;;;;;6.32;2.10;;;10.80;68.20;;;;;;5054103;28;20465;-46
2022/02/24 11:06:15;;;;;;;6.95;1.65;;;10.80;68.20;;;;;;5053714;28;20017;-47
2022/02/24 11:08:43;;;;;;;6.32;2.10;;;10.90;69.40;;;;;;5053682;28;20171;-46
2022/02/24 11:11:11;;;;;;;7.03;2.50;;;10.90;68.00;;;;;;5052322;28;20036;-46
2022/02/24 11:13:36;;;;;;;7.97;2.50;;;10.90;67.20;;;;;;5053560;28;20074;-47
2022/02/24 11:16:03;;;;;;;7.97;2.63;;;10.90;68.50;;;;;;5053688;28;20103;-47
2022/02/24 11:18:29;;;;;;;8.70;1.98;;;11.00;67.50;;;;;;5053428;28;20028;-43
2022/02/24 11:20:56;;;;;;;7.80;2.00;;;11.10;67.20;;;;;;5053165;28;20017;-45
2022/02/24 11:23:22;;;;;;;6.90;2.17;;;11.10;66.00;;;;;;5053239;28;20028;-47
2022/02/24 11:26:00;;;;;;;6.30;1.65;;;11.20;65.90;;;;;;5053322;28;20025;-47
2022/02/24 11:28:30;;;;;;;7.43;1.77;;;11.30;66.20;;;;;;5053195;28;20479;-47
2022/02/24 11:31:03;;;;;;;5.65;1.85;;;11.30;64.90;;;;;;5053199;28;20027;-48
2022/02/24 11:33:29;;;;;;;4.88;1.52;;;11.20;65.20;;;;;;5053210;28;20047;-47
2022/02/24 11:36:37;;;;;;;4.53;1.58;;;11.30;65.40;;;;;;5053303;28;20124;-46
2022/02/24 11:39:15;;;;;;;5.03;1.60;;;11.40;65.00;;;;;;5042484;28;20080;-46
2022/02/24 11:41:52;;;;;;;12.73;2.08;;;11.50;64.50;;;;;;5053071;28;20143;-49
2022/02/24 11:44:38;;;;;;;6.22;1.60;;;11.60;63.70;;;;;;5052890;28;20023;-45
2022/02/24 11:47:09;;;;;;;7.05;1.80;;;11.70;63.40;;;;;;5052912;28;20033;-47
2022/02/24 11:50:08;;;;;;;7.50;1.70;;;11.70;63.40;;;;;;5051602;28;20017;-47
2022/02/24 11:52:47;;;;;;;6.80;1.70;;;11.80;63.40;;;;;;5029652;28;20069;-48
2022/02/24 11:55:49;;;;;;;5.82;1.83;;;11.80;62.90;;;;;;5052797;28;20068;-46
2022/02/24 11:58:35;;;;;;;4.65;1.30;;;11.80;62.30;;;;;;5052687;28;20023;-48
2022/02/24 12:01:14;;;;;;;5.03;1.52;;;11.70;62.30;;;;;;5052838;28;20105;-47
2022/02/24 12:03:45;;;;;;;5.25;1.67;;;11.70;62.70;;;;;;5052765;28;20021;-47
2022/02/24 12:06:15;;;;;;;6.63;1.30;;;11.80;62.90;;;;;;5053011;28;20021;-46
2022/02/24 12:09:02;;;;;;;6.28;1.42;;;11.80;63.00;;;;;;5052738;28;20017;-48
2022/02/24 12:11:30;;;;;;;3.42;1.48;;;11.80;63.20;;;;;;5052583;28;20021;-48
2022/02/24 12:13:56;;;;;;;6.72;1.50;;;11.90;62.90;;;;;;5034952;28;20170;-46
2022/02/24 12:16:24;;;;;;;2.80;1.08;;;11.90;63.10;;;;;;5052591;28;20473;-47
2022/02/24 12:18:53;;;;;;;4.32;1.20;;;11.90;63.20;;;;;;5052676;28;20025;-48
2022/02/24 12:21:36;;;;;;;4.43;1.17;;;12.00;63.10;;;;;;5052851;28;20020;-49
2022/02/24 12:24:05;;;;;;;3.10;1.33;;;12.00;62.90;;;;;;5052730;28;20424;-47
2022/02/24 12:26:42;;;;;;;4.40;1.00;;;11.90;62.60;;;;;;5051406;28;20036;-50
2022/02/24 12:29:30;;;;;;;3.97;1.17;;;11.90;63.80;;;;;;5052419;28;20036;-48
2022/02/24 12:32:00;;;;;;;4.10;1.15;;;11.90;63.10;;;;;;5053470;28;20025;-48
2022/02/24 12:34:27;;;;;;;6.43;1.52;;;12.00;63.10;;;;;;5056632;28;20469;-49
2022/02/24 12:37:06;;;;;;;3.00;1.05;;;12.10;62.80;;;;;;5056547;28;20477;-46
2022/02/24 12:39:37;;;;;;;3.03;0.93;;;12.10;62.50;;;;;;5056401;28;20055;-45
2022/02/24 12:42:11;;;;;;;2.85;0.98;;;12.20;62.60;;;;;;5056722;28;20083;-47
2022/02/24 12:44:40;;;;;;;5.07;1.20;;;12.20;62.40;;;;;;5054871;28;20090;-45
2022/02/24 12:47:06;;;;;;;8.10;1.40;;;12.20;62.10;;;;;;5056302;28;20021;-48
2022/02/24 12:49:54;;;;;;;3.33;1.05;;;12.20;62.30;;;;;;5056311;28;20100;-44
2022/02/24 12:52:30;;;;;;;2.00;1.17;;;12.20;62.40;;;;;;5056452;28;20101;-45
2022/02/24 12:55:00;;;;;;;3.67;1.13;;;12.20;62.60;;;;;;5056148;28;20029;-45
2022/02/24 12:57:26;;;;;;;4.50;1.60;;;12.20;62.60;;;;;;5056371;28;20423;-45